BAW786 DTTA-LPFR
Flight info
| Callsign | BAW786 |
|---|---|
| Flight time | 2h 34m |
| Altitude | 36000 |
| Route | KEMIR2A KEMIR UM978 MORJA UA411 BNA UA31 CHE UA411 MOS UM744 CARBO M744 SVL/N0458F370 N747 MINTA/N0415F230 UN747 VFA Y103 GIMAL |
| Aircraft | A320/M-SDE3FGHIRWY/LB1 |
Departure
| Time | 2026-05-08 17:42 |
|---|---|
| Airport | Tunis Carthage International Airport (DTTA) |
Arrival
| Time | 2026-05-08 20:16 |
|---|---|
| Airport | Faro - Gago Coutinho International Airport (LPFR) |
| Time | Latitude | Longitude | Altitude | Speed | Heading |
|---|---|---|---|---|---|
| 2026-05-08 17:26 | 36.84603 | 10.21998 | 31 ft | 0 kts | 254° |
| 2026-05-08 17:36 | 36.84604 | 10.22004 | 30 ft | 2 kts | 254° |
| 2026-05-08 17:36 | 36.84608 | 10.22021 | 30 ft | 2 kts | 254° |
| 2026-05-08 17:37 | 36.84612 | 10.22038 | 29 ft | 2 kts | 254° |
| 2026-05-08 17:37 | 36.84615 | 10.22055 | 30 ft | 2 kts | 244° |
| 2026-05-08 17:37 | 36.84620 | 10.22066 | 30 ft | 2 kts | 197° |
| 2026-05-08 17:37 | 36.84618 | 10.22065 | 30 ft | 0 kts | 197° |
| 2026-05-08 17:39 | 36.84594 | 10.22066 | 30 ft | 8 kts | 178° |
| 2026-05-08 17:39 | 36.84517 | 10.22107 | 30 ft | 17 kts | 126° |
| 2026-05-08 17:39 | 36.84486 | 10.22212 | 30 ft | 16 kts | 120° |
| 2026-05-08 17:40 | 36.84388 | 10.22228 | 30 ft | 19 kts | 191° |
| 2026-05-08 17:40 | 36.84231 | 10.22185 | 30 ft | 28 kts | 192° |
| 2026-05-08 17:40 | 36.84022 | 10.22129 | 30 ft | 28 kts | 192° |
| 2026-05-08 17:40 | 36.83889 | 10.22107 | 30 ft | 16 kts | 162° |
| 2026-05-08 17:41 | 36.83885 | 10.22256 | 31 ft | 22 kts | 65° |
| 2026-05-08 17:41 | 36.84018 | 10.22401 | 31 ft | 29 kts | 21° |
| 2026-05-08 17:41 | 36.84273 | 10.22474 | 30 ft | 63 kts | 12° |
| 2026-05-08 17:41 | 36.84960 | 10.22660 | 33 ft | 134 kts | 12° |
| 2026-05-08 17:42 | 36.86047 | 10.22961 | 149 ft | 178 kts | 11° |
| 2026-05-08 17:42 | 36.87317 | 10.23341 | 725 ft | 200 kts | 12° |
| 2026-05-08 17:42 | 36.88740 | 10.23731 | 1045 ft | 214 kts | 12° |
| 2026-05-08 17:42 | 36.90224 | 10.24129 | 1210 ft | 228 kts | 12° |
| 2026-05-08 17:43 | 36.91846 | 10.24563 | 1730 ft | 244 kts | 12° |
| 2026-05-08 17:43 | 36.93520 | 10.25012 | 2597 ft | 248 kts | 11° |
| 2026-05-08 17:43 | 36.95141 | 10.25754 | 3181 ft | 269 kts | 51° |
| 2026-05-08 17:43 | 36.96091 | 10.27995 | 3319 ft | 288 kts | 40° |
| 2026-05-08 17:44 | 36.97564 | 10.28605 | 5634 ft | 210 kts | 352° |
| 2026-05-08 17:44 | 36.98970 | 10.28070 | 5828 ft | 225 kts | 315° |
| 2026-05-08 17:44 | 36.99772 | 10.26363 | 6064 ft | 240 kts | 277° |
| 2026-05-08 17:44 | 36.99469 | 10.24307 | 6755 ft | 250 kts | 245° |
| 2026-05-08 17:45 | 36.98406 | 10.22554 | 7549 ft | 259 kts | 229° |
| 2026-05-08 17:45 | 36.97036 | 10.21062 | 8342 ft | 262 kts | 227° |
| 2026-05-08 17:45 | 36.95686 | 10.19524 | 9123 ft | 263 kts | 230° |
| 2026-05-08 17:45 | 36.94422 | 10.17866 | 9914 ft | 264 kts | 233° |
| 2026-05-08 17:46 | 36.93248 | 10.16070 | 10353 ft | 274 kts | 245° |
| 2026-05-08 17:46 | 36.92435 | 10.13826 | 10498 ft | 295 kts | 249° |
| 2026-05-08 17:46 | 36.91615 | 10.11417 | 10646 ft | 316 kts | 249° |
| 2026-05-08 17:46 | 36.90732 | 10.08806 | 11079 ft | 325 kts | 249° |
| 2026-05-08 17:47 | 36.89859 | 10.06216 | 11677 ft | 329 kts | 249° |
| 2026-05-08 17:47 | 36.89001 | 10.03554 | 12301 ft | 332 kts | 254° |
| 2026-05-08 17:47 | 36.88570 | 10.00675 | 12916 ft | 335 kts | 262° |
| 2026-05-08 17:47 | 36.88325 | 9.98779 | 13321 ft | 337 kts | 259° |
| 2026-05-08 17:48 | 36.87650 | 9.94973 | 14091 ft | 341 kts | 255° |
| 2026-05-08 17:48 | 36.86987 | 9.92122 | 14620 ft | 343 kts | 253° |
| 2026-05-08 17:48 | 36.86283 | 9.89268 | 15179 ft | 344 kts | 253° |
| 2026-05-08 17:48 | 36.85591 | 9.86402 | 15730 ft | 346 kts | 253° |
| 2026-05-08 17:49 | 36.84931 | 9.83516 | 16282 ft | 347 kts | 254° |
| 2026-05-08 17:49 | 36.84468 | 9.80555 | 16821 ft | 350 kts | 264° |
| 2026-05-08 17:49 | 36.84394 | 9.77514 | 17382 ft | 352 kts | 266° |
| 2026-05-08 17:49 | 36.84350 | 9.74453 | 17951 ft | 353 kts | 266° |
| 2026-05-08 17:50 | 36.84305 | 9.71379 | 18467 ft | 355 kts | 266° |
| 2026-05-08 17:50 | 36.84255 | 9.68294 | 18957 ft | 357 kts | 266° |
| 2026-05-08 17:50 | 36.84202 | 9.65188 | 19451 ft | 358 kts | 266° |
| 2026-05-08 17:50 | 36.84147 | 9.62070 | 19922 ft | 361 kts | 266° |
| 2026-05-08 17:51 | 36.84089 | 9.58931 | 20404 ft | 363 kts | 266° |
| 2026-05-08 17:51 | 36.84027 | 9.55772 | 20877 ft | 365 kts | 266° |
| 2026-05-08 17:51 | 36.83961 | 9.52593 | 21330 ft | 367 kts | 266° |
| 2026-05-08 17:51 | 36.83896 | 9.49410 | 21766 ft | 369 kts | 266° |
| 2026-05-08 17:52 | 36.83832 | 9.46200 | 22214 ft | 371 kts | 267° |
| 2026-05-08 17:52 | 36.83769 | 9.42975 | 22654 ft | 372 kts | 266° |
| 2026-05-08 17:52 | 36.83692 | 9.36490 | 23494 ft | 376 kts | 268° |
| 2026-05-08 17:53 | 36.83693 | 9.33221 | 23846 ft | 378 kts | 268° |
| 2026-05-08 17:53 | 36.83703 | 9.29932 | 24176 ft | 379 kts | 268° |
| 2026-05-08 17:53 | 36.83714 | 9.26637 | 24513 ft | 381 kts | 268° |
| 2026-05-08 17:53 | 36.83720 | 9.23329 | 24841 ft | 382 kts | 268° |
| 2026-05-08 17:54 | 36.83720 | 9.20000 | 25177 ft | 384 kts | 268° |
| 2026-05-08 17:54 | 36.83712 | 9.16666 | 25509 ft | 385 kts | 268° |
| 2026-05-08 17:54 | 36.83700 | 9.13314 | 25840 ft | 387 kts | 268° |
| 2026-05-08 17:54 | 36.83686 | 9.09948 | 26183 ft | 388 kts | 268° |
| 2026-05-08 17:55 | 36.83671 | 9.06570 | 26541 ft | 390 kts | 268° |
| 2026-05-08 17:55 | 36.83658 | 9.03187 | 26903 ft | 390 kts | 268° |
| 2026-05-08 17:55 | 36.83644 | 8.99823 | 27396 ft | 387 kts | 268° |
| 2026-05-08 17:55 | 36.83629 | 8.96470 | 27864 ft | 386 kts | 268° |
| 2026-05-08 17:56 | 36.83616 | 8.93133 | 28355 ft | 384 kts | 268° |
| 2026-05-08 17:56 | 36.83601 | 8.89810 | 28815 ft | 382 kts | 268° |
| 2026-05-08 17:56 | 36.83583 | 8.86495 | 29276 ft | 381 kts | 268° |
| 2026-05-08 17:56 | 36.83565 | 8.83197 | 29769 ft | 379 kts | 268° |
| 2026-05-08 17:57 | 36.83548 | 8.79918 | 30220 ft | 377 kts | 269° |
| 2026-05-08 17:57 | 36.83528 | 8.76645 | 30632 ft | 376 kts | 269° |
| 2026-05-08 17:57 | 36.83505 | 8.73398 | 31091 ft | 373 kts | 269° |
| 2026-05-08 17:57 | 36.83481 | 8.70216 | 31535 ft | 370 kts | 269° |
| 2026-05-08 17:58 | 36.83458 | 8.66968 | 31949 ft | 368 kts | 269° |
| 2026-05-08 17:58 | 36.83438 | 8.63780 | 32380 ft | 366 kts | 269° |
| 2026-05-08 17:58 | 36.83433 | 8.60607 | 32808 ft | 364 kts | 269° |
| 2026-05-08 17:58 | 36.83437 | 8.57497 | 33266 ft | 362 kts | 270° |
| 2026-05-08 17:59 | 36.83445 | 8.54368 | 33727 ft | 360 kts | 270° |
| 2026-05-08 17:59 | 36.83453 | 8.51257 | 34173 ft | 357 kts | 270° |
| 2026-05-08 17:59 | 36.83457 | 8.48164 | 34549 ft | 355 kts | 270° |
| 2026-05-08 17:59 | 36.83457 | 8.45089 | 34875 ft | 354 kts | 269° |
| 2026-05-08 18:00 | 36.83454 | 8.42024 | 35186 ft | 353 kts | 269° |
| 2026-05-08 18:00 | 36.83446 | 8.35905 | 35781 ft | 351 kts | 269° |
| 2026-05-08 18:00 | 36.83440 | 8.32864 | 35990 ft | 351 kts | 269° |
| 2026-05-08 18:01 | 36.83426 | 8.26676 | 36031 ft | 362 kts | 269° |
| 2026-05-08 18:01 | 36.83410 | 8.20363 | 36025 ft | 365 kts | 269° |
| 2026-05-08 18:02 | 36.83398 | 8.15054 | 36021 ft | 365 kts | 269° |
| 2026-05-08 18:02 | 36.83374 | 8.07681 | 36015 ft | 365 kts | 269° |
| 2026-05-08 18:03 | 36.83349 | 8.01337 | 36011 ft | 366 kts | 269° |
| 2026-05-08 18:03 | 36.83323 | 7.94990 | 36026 ft | 366 kts | 268° |
| 2026-05-08 18:04 | 36.83292 | 7.88648 | 36020 ft | 366 kts | 268° |
| 2026-05-08 18:04 | 36.83248 | 7.82307 | 36018 ft | 365 kts | 268° |
| 2026-05-08 18:05 | 36.83197 | 7.75964 | 36016 ft | 366 kts | 268° |
| 2026-05-08 18:05 | 36.83129 | 7.69620 | 36015 ft | 366 kts | 268° |
| 2026-05-08 18:06 | 36.83056 | 7.63275 | 36021 ft | 366 kts | 268° |
| 2026-05-08 18:06 | 36.82980 | 7.56929 | 36025 ft | 366 kts | 268° |
| 2026-05-08 18:07 | 36.82897 | 7.50576 | 36025 ft | 366 kts | 268° |
| 2026-05-08 18:07 | 36.82817 | 7.44217 | 36035 ft | 367 kts | 268° |
| 2026-05-08 18:08 | 36.82750 | 7.38925 | 36034 ft | 367 kts | 268° |
| 2026-05-08 18:08 | 36.82651 | 7.31472 | 36037 ft | 367 kts | 268° |
| 2026-05-08 18:09 | 36.82575 | 7.26178 | 36035 ft | 367 kts | 268° |
| 2026-05-08 18:09 | 36.82484 | 7.19801 | 36035 ft | 368 kts | 268° |
| 2026-05-08 18:10 | 36.82389 | 7.13416 | 36030 ft | 368 kts | 268° |
| 2026-05-08 18:10 | 36.82289 | 7.07039 | 36031 ft | 367 kts | 267° |
| 2026-05-08 18:11 | 36.82183 | 7.00671 | 36032 ft | 367 kts | 267° |
| 2026-05-08 18:11 | 36.82071 | 6.94293 | 36035 ft | 367 kts | 267° |
| 2026-05-08 18:12 | 36.81962 | 6.87920 | 36034 ft | 367 kts | 267° |
| 2026-05-08 18:12 | 36.81846 | 6.81553 | 36044 ft | 367 kts | 267° |
| 2026-05-08 18:13 | 36.81726 | 6.75175 | 36041 ft | 367 kts | 267° |
| 2026-05-08 18:13 | 36.81604 | 6.68813 | 36038 ft | 367 kts | 267° |
| 2026-05-08 18:14 | 36.81479 | 6.62433 | 36034 ft | 367 kts | 267° |
| 2026-05-08 18:14 | 36.81358 | 6.56104 | 36032 ft | 367 kts | 267° |
| 2026-05-08 18:15 | 36.81222 | 6.49723 | 35992 ft | 368 kts | 267° |
| 2026-05-08 18:15 | 36.81084 | 6.43337 | 36000 ft | 369 kts | 266° |
| 2026-05-08 18:16 | 36.80948 | 6.36929 | 36002 ft | 370 kts | 266° |
| 2026-05-08 18:16 | 36.80803 | 6.30504 | 36004 ft | 370 kts | 266° |
| 2026-05-08 18:17 | 36.80660 | 6.24078 | 36006 ft | 371 kts | 266° |
| 2026-05-08 18:17 | 36.80508 | 6.17646 | 36007 ft | 371 kts | 266° |
| 2026-05-08 18:18 | 36.80355 | 6.11216 | 36005 ft | 371 kts | 266° |
| 2026-05-08 18:18 | 36.80199 | 6.04779 | 36016 ft | 371 kts | 266° |
| 2026-05-08 18:19 | 36.80040 | 5.98338 | 36014 ft | 372 kts | 266° |
| 2026-05-08 18:19 | 36.79870 | 5.91888 | 36014 ft | 372 kts | 266° |
| 2026-05-08 18:20 | 36.79556 | 5.85464 | 36013 ft | 371 kts | 262° |
| 2026-05-08 18:20 | 36.78920 | 5.79072 | 36012 ft | 371 kts | 262° |
| 2026-05-08 18:21 | 36.78280 | 5.72679 | 36012 ft | 371 kts | 262° |
| 2026-05-08 18:21 | 36.77635 | 5.66287 | 36017 ft | 371 kts | 262° |
| 2026-05-08 18:22 | 36.76984 | 5.59896 | 36019 ft | 372 kts | 262° |
| 2026-05-08 18:22 | 36.76331 | 5.53497 | 36018 ft | 372 kts | 262° |
| 2026-05-08 18:23 | 36.75675 | 5.47100 | 36018 ft | 372 kts | 262° |
| 2026-05-08 18:23 | 36.75013 | 5.40706 | 36017 ft | 372 kts | 261° |
| 2026-05-08 18:24 | 36.74345 | 5.34309 | 36015 ft | 372 kts | 261° |
| 2026-05-08 18:24 | 36.73675 | 5.27918 | 36023 ft | 372 kts | 261° |
| 2026-05-08 18:25 | 36.73007 | 5.21518 | 36019 ft | 372 kts | 261° |
| 2026-05-08 18:25 | 36.72334 | 5.15122 | 36020 ft | 372 kts | 261° |
| 2026-05-08 18:26 | 36.71660 | 5.08764 | 36017 ft | 372 kts | 261° |
| 2026-05-08 18:26 | 36.71202 | 5.02329 | 36015 ft | 373 kts | 265° |
| 2026-05-08 18:27 | 36.71053 | 4.96912 | 36017 ft | 374 kts | 266° |
| 2026-05-08 18:27 | 36.70861 | 4.89390 | 36025 ft | 373 kts | 265° |
| 2026-05-08 18:28 | 36.70621 | 4.82926 | 36021 ft | 373 kts | 265° |
| 2026-05-08 18:28 | 36.70355 | 4.76468 | 36012 ft | 373 kts | 265° |
| 2026-05-08 18:29 | 36.70095 | 4.70004 | 36006 ft | 373 kts | 265° |
| 2026-05-08 18:29 | 36.69835 | 4.63548 | 36007 ft | 373 kts | 265° |
| 2026-05-08 18:30 | 36.69571 | 4.57092 | 36006 ft | 373 kts | 264° |
| 2026-05-08 18:30 | 36.69301 | 4.50629 | 36000 ft | 373 kts | 264° |
| 2026-05-08 18:31 | 36.69027 | 4.44166 | 35993 ft | 374 kts | 264° |
| 2026-05-08 18:31 | 36.68756 | 4.37697 | 35983 ft | 374 kts | 264° |
| 2026-05-08 18:32 | 36.68483 | 4.31225 | 35987 ft | 374 kts | 264° |
| 2026-05-08 18:32 | 36.68202 | 4.24755 | 35980 ft | 374 kts | 264° |
| 2026-05-08 18:33 | 36.67911 | 4.18286 | 36001 ft | 374 kts | 264° |
| 2026-05-08 18:33 | 36.67620 | 4.11818 | 35966 ft | 374 kts | 264° |
| 2026-05-08 18:34 | 36.67328 | 4.05356 | 35972 ft | 373 kts | 264° |
| 2026-05-08 18:34 | 36.67037 | 3.98894 | 35974 ft | 374 kts | 264° |
| 2026-05-08 18:35 | 36.67274 | 3.92409 | 35971 ft | 377 kts | 272° |
| 2026-05-08 18:35 | 36.67841 | 3.85920 | 35967 ft | 377 kts | 272° |
| 2026-05-08 18:36 | 36.68405 | 3.79421 | 35988 ft | 378 kts | 272° |
| 2026-05-08 18:36 | 36.68968 | 3.72906 | 36014 ft | 378 kts | 272° |
| 2026-05-08 18:37 | 36.69535 | 3.66397 | 36000 ft | 377 kts | 272° |
| 2026-05-08 18:37 | 36.70101 | 3.59899 | 35997 ft | 377 kts | 272° |
| 2026-05-08 18:38 | 36.70653 | 3.53411 | 35990 ft | 377 kts | 272° |
| 2026-05-08 18:38 | 36.71189 | 3.46963 | 35992 ft | 377 kts | 271° |
| 2026-05-08 18:39 | 36.71734 | 3.40422 | 35990 ft | 377 kts | 271° |
| 2026-05-08 18:39 | 36.72276 | 3.33925 | 35993 ft | 377 kts | 272° |
| 2026-05-08 18:40 | 36.72809 | 3.27478 | 35991 ft | 377 kts | 271° |
| 2026-05-08 18:40 | 36.73350 | 3.20945 | 36003 ft | 384 kts | 271° |
| 2026-05-08 18:41 | 36.73898 | 3.14213 | 36002 ft | 395 kts | 272° |
| 2026-05-08 18:41 | 36.74460 | 3.07365 | 35998 ft | 397 kts | 272° |
| 2026-05-08 18:42 | 36.75016 | 3.00512 | 35989 ft | 397 kts | 271° |
| 2026-05-08 18:42 | 36.75563 | 2.93658 | 35983 ft | 397 kts | 271° |
| 2026-05-08 18:43 | 36.76104 | 2.86831 | 35974 ft | 388 kts | 271° |
| 2026-05-08 18:43 | 36.76630 | 2.80269 | 35967 ft | 377 kts | 271° |
| 2026-05-08 18:44 | 36.77139 | 2.73783 | 35976 ft | 375 kts | 271° |
| 2026-05-08 18:44 | 36.77644 | 2.67295 | 35971 ft | 375 kts | 271° |
| 2026-05-08 18:45 | 36.78146 | 2.60827 | 35974 ft | 375 kts | 271° |
| 2026-05-08 18:45 | 36.78640 | 2.54354 | 35967 ft | 375 kts | 271° |
| 2026-05-08 18:46 | 36.79130 | 2.47881 | 35972 ft | 375 kts | 271° |
| 2026-05-08 18:46 | 36.79614 | 2.41388 | 35979 ft | 385 kts | 271° |
| 2026-05-08 18:47 | 36.80117 | 2.34634 | 35983 ft | 395 kts | 271° |
| 2026-05-08 18:47 | 36.80636 | 2.27798 | 35980 ft | 396 kts | 271° |
| 2026-05-08 18:48 | 36.81150 | 2.20945 | 35971 ft | 396 kts | 271° |
| 2026-05-08 18:48 | 36.81651 | 2.14096 | 35969 ft | 396 kts | 270° |
| 2026-05-08 18:49 | 36.82148 | 2.07246 | 35967 ft | 397 kts | 270° |
| 2026-05-08 18:49 | 36.82643 | 2.00385 | 35981 ft | 397 kts | 270° |
| 2026-05-08 18:50 | 36.83127 | 1.93530 | 35967 ft | 397 kts | 270° |
| 2026-05-08 18:50 | 36.83605 | 1.86718 | 35983 ft | 397 kts | 270° |
| 2026-05-08 18:51 | 36.84089 | 1.79859 | 35973 ft | 397 kts | 270° |
| 2026-05-08 18:51 | 36.84575 | 1.72989 | 35974 ft | 397 kts | 270° |
| 2026-05-08 18:52 | 36.85050 | 1.66116 | 35972 ft | 397 kts | 270° |
| 2026-05-08 18:52 | 36.85521 | 1.59252 | 35972 ft | 397 kts | 270° |
| 2026-05-08 18:53 | 36.85995 | 1.52379 | 35980 ft | 397 kts | 270° |
| 2026-05-08 18:53 | 36.86461 | 1.45505 | 35975 ft | 397 kts | 270° |
| 2026-05-08 18:54 | 36.86919 | 1.38631 | 35976 ft | 397 kts | 270° |
| 2026-05-08 18:54 | 36.87374 | 1.31746 | 35974 ft | 398 kts | 270° |
| 2026-05-08 18:55 | 36.88046 | 1.21425 | 35970 ft | 398 kts | 270° |
| 2026-05-08 18:56 | 36.88494 | 1.14537 | 35994 ft | 398 kts | 270° |
| 2026-05-08 18:56 | 36.88935 | 1.07654 | 35987 ft | 397 kts | 269° |
| 2026-05-08 18:57 | 36.89377 | 1.00824 | 35981 ft | 397 kts | 269° |
| 2026-05-08 18:57 | 36.89811 | 0.93954 | 35977 ft | 397 kts | 269° |
| 2026-05-08 18:58 | 36.90236 | 0.87079 | 35975 ft | 397 kts | 269° |
| 2026-05-08 18:58 | 36.90660 | 0.80206 | 35973 ft | 397 kts | 269° |
| 2026-05-08 18:59 | 36.91081 | 0.73335 | 35990 ft | 397 kts | 269° |
| 2026-05-08 18:59 | 36.91429 | 0.67622 | 35984 ft | 397 kts | 269° |
| 2026-05-08 19:00 | 36.91842 | 0.60758 | 35976 ft | 396 kts | 269° |
| 2026-05-08 19:00 | 36.92251 | 0.53889 | 35974 ft | 396 kts | 269° |
| 2026-05-08 19:01 | 36.92650 | 0.47024 | 35972 ft | 396 kts | 269° |
| 2026-05-08 19:01 | 36.93056 | 0.40156 | 35971 ft | 396 kts | 269° |
| 2026-05-08 19:02 | 36.93459 | 0.33289 | 35986 ft | 396 kts | 269° |
| 2026-05-08 19:02 | 36.93862 | 0.26419 | 35978 ft | 396 kts | 269° |
| 2026-05-08 19:03 | 36.94261 | 0.19544 | 35975 ft | 396 kts | 268° |
| 2026-05-08 19:03 | 36.94645 | 0.12673 | 35973 ft | 396 kts | 268° |
| 2026-05-08 19:04 | 36.95020 | 0.05802 | 35974 ft | 396 kts | 268° |
| 2026-05-08 19:04 | 36.95398 | -0.01076 | 35983 ft | 397 kts | 268° |
| 2026-05-08 19:05 | 36.95772 | -0.07955 | 35983 ft | 397 kts | 268° |
| 2026-05-08 19:05 | 36.96147 | -0.14843 | 35975 ft | 397 kts | 268° |
| 2026-05-08 19:06 | 36.96519 | -0.21704 | 36077 ft | 402 kts | 273° |
| 2026-05-08 19:06 | 36.96702 | -0.25211 | 35854 ft | 405 kts | 268° |
| 2026-05-08 19:06 | 36.96884 | -0.28712 | 35957 ft | 401 kts | 268° |
| 2026-05-08 19:07 | 36.97246 | -0.35631 | 35961 ft | 398 kts | 268° |
| 2026-05-08 19:07 | 36.97602 | -0.42523 | 35960 ft | 397 kts | 268° |
| 2026-05-08 19:08 | 36.97956 | -0.49411 | 35962 ft | 397 kts | 268° |
| 2026-05-08 19:08 | 36.98307 | -0.56301 | 35959 ft | 397 kts | 268° |
| 2026-05-08 19:09 | 36.98648 | -0.63198 | 35963 ft | 397 kts | 268° |
| 2026-05-08 19:09 | 36.98982 | -0.70094 | 35973 ft | 397 kts | 268° |
| 2026-05-08 19:10 | 36.99317 | -0.76990 | 36013 ft | 397 kts | 267° |
| 2026-05-08 19:10 | 36.99648 | -0.83863 | 35983 ft | 395 kts | 267° |
| 2026-05-08 19:11 | 36.99975 | -0.90731 | 35974 ft | 395 kts | 267° |
| 2026-05-08 19:11 | 37.00294 | -0.97596 | 35974 ft | 395 kts | 267° |
| 2026-05-08 19:12 | 37.00614 | -1.04469 | 35974 ft | 396 kts | 267° |
| 2026-05-08 19:12 | 37.00926 | -1.11340 | 35974 ft | 396 kts | 267° |
| 2026-05-08 19:13 | 37.01235 | -1.18214 | 35990 ft | 396 kts | 267° |
| 2026-05-08 19:13 | 37.01541 | -1.25085 | 35975 ft | 395 kts | 267° |
| 2026-05-08 19:14 | 37.01841 | -1.31911 | 35976 ft | 395 kts | 267° |
| 2026-05-08 19:14 | 37.02142 | -1.38780 | 35977 ft | 395 kts | 267° |
| 2026-05-08 19:15 | 37.02440 | -1.45649 | 35974 ft | 395 kts | 267° |
| 2026-05-08 19:15 | 37.02731 | -1.52524 | 35977 ft | 395 kts | 266° |
| 2026-05-08 19:16 | 37.03019 | -1.59399 | 35986 ft | 396 kts | 266° |
| 2026-05-08 19:16 | 37.03298 | -1.66287 | 35983 ft | 396 kts | 266° |
| 2026-05-08 19:17 | 37.03579 | -1.73177 | 35980 ft | 397 kts | 266° |
| 2026-05-08 19:17 | 37.03855 | -1.80077 | 35978 ft | 397 kts | 266° |
| 2026-05-08 19:18 | 37.04131 | -1.86982 | 35973 ft | 397 kts | 266° |
| 2026-05-08 19:18 | 37.04404 | -1.93884 | 36008 ft | 397 kts | 266° |
| 2026-05-08 19:19 | 37.04663 | -2.00785 | 35997 ft | 397 kts | 266° |
| 2026-05-08 19:19 | 37.04918 | -2.07675 | 35984 ft | 396 kts | 266° |
| 2026-05-08 19:20 | 37.05172 | -2.14556 | 35976 ft | 396 kts | 265° |
| 2026-05-08 19:20 | 37.05424 | -2.21442 | 35976 ft | 397 kts | 265° |
| 2026-05-08 19:21 | 37.05674 | -2.28354 | 35972 ft | 397 kts | 265° |
| 2026-05-08 19:21 | 37.05912 | -2.35245 | 35998 ft | 396 kts | 265° |
| 2026-05-08 19:22 | 37.06149 | -2.42128 | 35999 ft | 395 kts | 265° |
| 2026-05-08 19:22 | 37.06386 | -2.48943 | 35986 ft | 395 kts | 265° |
| 2026-05-08 19:23 | 37.06620 | -2.55808 | 35984 ft | 394 kts | 265° |
| 2026-05-08 19:23 | 37.06846 | -2.62666 | 35985 ft | 394 kts | 265° |
| 2026-05-08 19:24 | 37.07068 | -2.69522 | 36023 ft | 394 kts | 264° |
| 2026-05-08 19:24 | 37.07287 | -2.76437 | 35989 ft | 401 kts | 264° |
| 2026-05-08 19:25 | 37.07505 | -2.83364 | 35990 ft | 397 kts | 268° |
| 2026-05-08 19:25 | 37.07719 | -2.90320 | 35972 ft | 400 kts | 264° |
| 2026-05-08 19:26 | 37.07927 | -2.97234 | 35965 ft | 396 kts | 264° |
| 2026-05-08 19:26 | 37.08126 | -3.04117 | 35967 ft | 395 kts | 264° |
| 2026-05-08 19:27 | 37.08327 | -3.11014 | 35963 ft | 397 kts | 264° |
| 2026-05-08 19:27 | 37.08524 | -3.17935 | 35964 ft | 398 kts | 264° |
| 2026-05-08 19:28 | 37.08716 | -3.24868 | 35961 ft | 398 kts | 264° |
| 2026-05-08 19:28 | 37.08907 | -3.31762 | 35966 ft | 399 kts | 264° |
| 2026-05-08 19:29 | 37.09093 | -3.38687 | 35953 ft | 398 kts | 264° |
| 2026-05-08 19:29 | 37.09271 | -3.45617 | 35969 ft | 398 kts | 263° |
| 2026-05-08 19:30 | 37.09448 | -3.52571 | 35948 ft | 401 kts | 263° |
| 2026-05-08 19:30 | 37.09621 | -3.59546 | 35943 ft | 401 kts | 263° |
| 2026-05-08 19:31 | 37.09790 | -3.66530 | 35939 ft | 402 kts | 263° |
| 2026-05-08 19:31 | 37.09955 | -3.73529 | 35942 ft | 402 kts | 263° |
| 2026-05-08 19:32 | 37.10113 | -3.80530 | 35922 ft | 402 kts | 263° |
| 2026-05-08 19:32 | 37.10274 | -3.87540 | 35940 ft | 403 kts | 263° |
| 2026-05-08 19:33 | 37.10431 | -3.94550 | 35938 ft | 403 kts | 263° |
| 2026-05-08 19:33 | 37.10576 | -4.01569 | 35939 ft | 403 kts | 263° |
| 2026-05-08 19:34 | 37.10721 | -4.08540 | 35943 ft | 403 kts | 263° |
| 2026-05-08 19:34 | 37.10869 | -4.15561 | 35946 ft | 403 kts | 263° |
| 2026-05-08 19:35 | 37.11006 | -4.22590 | 35952 ft | 404 kts | 263° |
| 2026-05-08 19:35 | 37.11135 | -4.29612 | 35947 ft | 403 kts | 263° |
| 2026-05-08 19:36 | 37.11264 | -4.36636 | 35947 ft | 403 kts | 263° |
| 2026-05-08 19:36 | 37.11392 | -4.43667 | 35945 ft | 403 kts | 263° |
| 2026-05-08 19:37 | 37.11513 | -4.50690 | 35942 ft | 403 kts | 263° |
| 2026-05-08 19:37 | 37.11625 | -4.57721 | 35979 ft | 403 kts | 263° |
| 2026-05-08 19:38 | 37.11739 | -4.64721 | 35941 ft | 401 kts | 263° |
| 2026-05-08 19:38 | 37.11847 | -4.71712 | 35937 ft | 401 kts | 263° |
| 2026-05-08 19:39 | 37.11953 | -4.78702 | 35923 ft | 401 kts | 263° |
| 2026-05-08 19:39 | 37.12055 | -4.85695 | 35924 ft | 402 kts | 263° |
| 2026-05-08 19:40 | 37.12144 | -4.92694 | 35918 ft | 401 kts | 263° |
| 2026-05-08 19:40 | 37.12225 | -4.99677 | 35928 ft | 400 kts | 262° |
| 2026-05-08 19:41 | 37.12312 | -5.06645 | 35922 ft | 400 kts | 262° |
| 2026-05-08 19:41 | 37.12401 | -5.13612 | 35941 ft | 400 kts | 262° |
| 2026-05-08 19:42 | 37.12477 | -5.20528 | 35922 ft | 400 kts | 262° |
| 2026-05-08 19:42 | 37.12551 | -5.27487 | 35912 ft | 399 kts | 262° |
| 2026-05-08 19:43 | 37.12627 | -5.34437 | 35939 ft | 399 kts | 262° |
| 2026-05-08 19:43 | 37.12703 | -5.41381 | 35890 ft | 398 kts | 262° |
| 2026-05-08 19:44 | 37.12760 | -5.48304 | 35891 ft | 398 kts | 261° |
| 2026-05-08 19:44 | 37.12811 | -5.55231 | 35897 ft | 398 kts | 262° |
| 2026-05-08 19:44 | 37.12836 | -5.58703 | 35769 ft | 398 kts | 262° |
| 2026-05-08 19:45 | 37.12861 | -5.62168 | 35875 ft | 398 kts | 270° |
| 2026-05-08 19:45 | 37.12887 | -5.65644 | 35989 ft | 401 kts | 262° |
| 2026-05-08 19:45 | 37.12915 | -5.69124 | 35866 ft | 399 kts | 262° |
| 2026-05-08 19:46 | 37.12967 | -5.76073 | 35868 ft | 398 kts | 261° |
| 2026-05-08 19:46 | 37.13027 | -5.86491 | 35876 ft | 399 kts | 261° |
| 2026-05-08 19:47 | 37.13069 | -5.93437 | 35876 ft | 399 kts | 261° |
| 2026-05-08 19:47 | 37.13102 | -6.00385 | 35884 ft | 399 kts | 261° |
| 2026-05-08 19:48 | 37.13122 | -6.07347 | 35887 ft | 399 kts | 261° |
| 2026-05-08 19:48 | 37.13146 | -6.14306 | 35913 ft | 400 kts | 261° |
| 2026-05-08 19:49 | 37.13173 | -6.21274 | 35901 ft | 401 kts | 261° |
| 2026-05-08 19:49 | 37.13191 | -6.28256 | 35895 ft | 398 kts | 261° |
| 2026-05-08 19:50 | 37.13203 | -6.31668 | 35813 ft | 386 kts | 261° |
| 2026-05-08 19:50 | 37.13211 | -6.33886 | 35565 ft | 382 kts | 260° |
| 2026-05-08 19:50 | 37.13218 | -6.37203 | 35046 ft | 380 kts | 260° |
| 2026-05-08 19:50 | 37.13221 | -6.40507 | 34484 ft | 379 kts | 260° |
| 2026-05-08 19:51 | 37.13218 | -6.44871 | 33486 ft | 381 kts | 259° |
| 2026-05-08 19:51 | 37.13210 | -6.47142 | 32637 ft | 390 kts | 259° |
| 2026-05-08 19:51 | 37.13192 | -6.50580 | 31506 ft | 399 kts | 260° |
| 2026-05-08 19:51 | 37.13181 | -6.54078 | 30492 ft | 404 kts | 261° |
| 2026-05-08 19:52 | 37.13177 | -6.57616 | 29404 ft | 409 kts | 261° |
| 2026-05-08 19:52 | 37.12933 | -6.61136 | 28197 ft | 400 kts | 250° |
| 2026-05-08 19:52 | 37.12156 | -6.64478 | 26894 ft | 402 kts | 246° |
| 2026-05-08 19:52 | 37.11308 | -6.67833 | 25747 ft | 405 kts | 246° |
| 2026-05-08 19:53 | 37.10430 | -6.71231 | 24393 ft | 414 kts | 246° |
| 2026-05-08 19:53 | 37.09541 | -6.74651 | 23612 ft | 411 kts | 246° |
| 2026-05-08 19:53 | 37.08663 | -6.78038 | 22676 ft | 406 kts | 246° |
| 2026-05-08 19:53 | 37.07799 | -6.81388 | 21720 ft | 402 kts | 246° |
| 2026-05-08 19:54 | 37.06947 | -6.84704 | 20871 ft | 398 kts | 246° |
| 2026-05-08 19:54 | 37.06104 | -6.87983 | 20038 ft | 394 kts | 246° |
| 2026-05-08 19:54 | 37.05280 | -6.91188 | 19230 ft | 389 kts | 246° |
| 2026-05-08 19:54 | 37.04453 | -6.94397 | 18417 ft | 386 kts | 246° |
| 2026-05-08 19:55 | 37.03631 | -6.97570 | 17534 ft | 382 kts | 246° |
| 2026-05-08 19:55 | 37.02817 | -7.00718 | 16629 ft | 379 kts | 246° |
| 2026-05-08 19:55 | 37.02015 | -7.03824 | 15899 ft | 373 kts | 247° |
| 2026-05-08 19:55 | 37.01206 | -7.06955 | 15009 ft | 373 kts | 247° |
| 2026-05-08 19:56 | 37.00418 | -7.09990 | 14234 ft | 371 kts | 247° |
| 2026-05-08 19:56 | 36.99623 | -7.13050 | 13477 ft | 369 kts | 248° |
| 2026-05-08 19:56 | 36.98829 | -7.16095 | 12713 ft | 366 kts | 248° |
| 2026-05-08 19:56 | 36.98055 | -7.19122 | 11855 ft | 366 kts | 250° |
| 2026-05-08 19:57 | 36.97721 | -7.22308 | 11029 ft | 372 kts | 262° |
| 2026-05-08 19:57 | 36.97588 | -7.25545 | 10192 ft | 373 kts | 263° |
| 2026-05-08 19:57 | 36.97469 | -7.28784 | 9334 ft | 372 kts | 263° |
| 2026-05-08 19:57 | 36.97359 | -7.32009 | 8508 ft | 371 kts | 264° |
| 2026-05-08 19:58 | 36.97249 | -7.35226 | 7708 ft | 369 kts | 264° |
| 2026-05-08 19:58 | 36.97133 | -7.38416 | 6948 ft | 367 kts | 264° |
| 2026-05-08 19:58 | 36.97015 | -7.41588 | 6250 ft | 363 kts | 264° |
| 2026-05-08 19:58 | 36.96898 | -7.44680 | 5959 ft | 348 kts | 264° |
| 2026-05-08 19:59 | 36.96788 | -7.47620 | 5870 ft | 329 kts | 264° |
| 2026-05-08 19:59 | 36.96684 | -7.50391 | 5885 ft | 310 kts | 264° |
| 2026-05-08 19:59 | 36.96586 | -7.53006 | 5886 ft | 293 kts | 263° |
| 2026-05-08 19:59 | 36.96491 | -7.55487 | 5888 ft | 277 kts | 263° |
| 2026-05-08 20:00 | 36.96396 | -7.57853 | 5884 ft | 270 kts | 263° |
| 2026-05-08 20:00 | 36.96299 | -7.60195 | 5892 ft | 270 kts | 262° |
| 2026-05-08 20:00 | 36.96201 | -7.62528 | 5883 ft | 268 kts | 262° |
| 2026-05-08 20:00 | 36.96104 | -7.64846 | 5880 ft | 267 kts | 262° |
| 2026-05-08 20:01 | 36.96009 | -7.67160 | 5877 ft | 266 kts | 262° |
| 2026-05-08 20:01 | 36.95916 | -7.69473 | 5877 ft | 266 kts | 262° |
| 2026-05-08 20:01 | 36.95823 | -7.71784 | 5872 ft | 267 kts | 262° |
| 2026-05-08 20:01 | 36.95728 | -7.74104 | 5872 ft | 267 kts | 262° |
| 2026-05-08 20:02 | 36.95633 | -7.76422 | 5868 ft | 267 kts | 262° |
| 2026-05-08 20:02 | 36.95538 | -7.78721 | 5871 ft | 260 kts | 262° |
| 2026-05-08 20:02 | 36.95450 | -7.80923 | 5873 ft | 246 kts | 261° |
| 2026-05-08 20:02 | 36.95369 | -7.83000 | 5863 ft | 232 kts | 261° |
| 2026-05-08 20:03 | 36.95292 | -7.84953 | 5870 ft | 221 kts | 261° |
| 2026-05-08 20:03 | 36.95210 | -7.86867 | 5863 ft | 220 kts | 261° |
| 2026-05-08 20:03 | 36.95127 | -7.88773 | 5865 ft | 220 kts | 261° |
| 2026-05-08 20:03 | 36.95044 | -7.90688 | 5848 ft | 220 kts | 261° |
| 2026-05-08 20:04 | 36.94960 | -7.92618 | 5337 ft | 229 kts | 261° |
| 2026-05-08 20:04 | 36.94863 | -7.94660 | 4608 ft | 248 kts | 261° |
| 2026-05-08 20:04 | 36.94761 | -7.96874 | 4024 ft | 258 kts | 262° |
| 2026-05-08 20:04 | 36.94669 | -7.99075 | 3903 ft | 249 kts | 262° |
| 2026-05-08 20:05 | 36.94587 | -8.01173 | 3900 ft | 234 kts | 262° |
| 2026-05-08 20:05 | 36.94510 | -8.03141 | 3902 ft | 219 kts | 262° |
| 2026-05-08 20:05 | 36.94435 | -8.05010 | 3905 ft | 214 kts | 261° |
| 2026-05-08 20:05 | 36.94354 | -8.06866 | 3908 ft | 215 kts | 261° |
| 2026-05-08 20:06 | 36.94257 | -8.08849 | 3915 ft | 246 kts | 261° |
| 2026-05-08 20:06 | 36.94147 | -8.11047 | 3911 ft | 257 kts | 262° |
| 2026-05-08 20:06 | 36.94047 | -8.13284 | 3911 ft | 258 kts | 262° |
| 2026-05-08 20:06 | 36.93950 | -8.15521 | 3911 ft | 259 kts | 262° |
| 2026-05-08 20:07 | 36.93851 | -8.17772 | 3914 ft | 259 kts | 262° |
| 2026-05-08 20:07 | 36.93752 | -8.20018 | 3911 ft | 258 kts | 262° |
| 2026-05-08 20:07 | 36.93660 | -8.22213 | 3907 ft | 246 kts | 262° |
| 2026-05-08 20:07 | 36.93575 | -8.24279 | 3907 ft | 231 kts | 262° |
| 2026-05-08 20:08 | 36.93517 | -8.26220 | 3905 ft | 218 kts | 268° |
| 2026-05-08 20:08 | 36.93861 | -8.28067 | 3910 ft | 219 kts | 289° |
| 2026-05-08 20:08 | 36.94691 | -8.29609 | 3916 ft | 215 kts | 309° |
| 2026-05-08 20:08 | 36.95910 | -8.30714 | 3915 ft | 220 kts | 331° |
| 2026-05-08 20:09 | 36.97398 | -8.31221 | 3913 ft | 224 kts | 355° |
| 2026-05-08 20:09 | 36.98947 | -8.31018 | 3912 ft | 226 kts | 19° |
| 2026-05-08 20:09 | 37.00378 | -8.30213 | 3915 ft | 226 kts | 28° |
| 2026-05-08 20:09 | 37.01785 | -8.29338 | 3914 ft | 226 kts | 28° |
| 2026-05-08 20:10 | 37.03181 | -8.28439 | 3910 ft | 225 kts | 36° |
| 2026-05-08 20:10 | 37.04311 | -8.27156 | 3924 ft | 210 kts | 58° |
| 2026-05-08 20:10 | 37.04962 | -8.25693 | 3934 ft | 174 kts | 77° |
| 2026-05-08 20:10 | 37.05210 | -8.24327 | 3916 ft | 153 kts | 94° |
| 2026-05-08 20:11 | 37.05161 | -8.23035 | 3827 ft | 145 kts | 110° |
| 2026-05-08 20:11 | 37.04986 | -8.21790 | 3677 ft | 145 kts | 109° |
| 2026-05-08 20:11 | 37.04813 | -8.20549 | 3500 ft | 145 kts | 109° |
| 2026-05-08 20:11 | 37.04640 | -8.19306 | 3318 ft | 145 kts | 109° |
| 2026-05-08 20:12 | 37.04467 | -8.18070 | 3131 ft | 144 kts | 109° |
| 2026-05-08 20:12 | 37.04294 | -8.16834 | 2936 ft | 145 kts | 109° |
| 2026-05-08 20:12 | 37.04121 | -8.15596 | 2748 ft | 144 kts | 109° |
| 2026-05-08 20:12 | 37.03951 | -8.14387 | 2554 ft | 142 kts | 109° |
| 2026-05-08 20:13 | 37.03780 | -8.13168 | 2358 ft | 142 kts | 108° |
| 2026-05-08 20:13 | 37.03609 | -8.11950 | 2165 ft | 142 kts | 107° |
| 2026-05-08 20:13 | 37.03440 | -8.10742 | 1981 ft | 141 kts | 107° |
| 2026-05-08 20:13 | 37.03269 | -8.09532 | 1789 ft | 142 kts | 108° |
| 2026-05-08 20:14 | 37.03099 | -8.08320 | 1601 ft | 140 kts | 107° |
| 2026-05-08 20:14 | 37.02932 | -8.07129 | 1410 ft | 138 kts | 108° |
| 2026-05-08 20:14 | 37.02765 | -8.05945 | 1221 ft | 139 kts | 105° |
| 2026-05-08 20:14 | 37.02598 | -8.04761 | 1036 ft | 138 kts | 106° |
| 2026-05-08 20:15 | 37.02432 | -8.03583 | 842 ft | 137 kts | 107° |
| 2026-05-08 20:15 | 37.02269 | -8.02428 | 667 ft | 133 kts | 108° |
| 2026-05-08 20:15 | 37.02106 | -8.01282 | 502 ft | 134 kts | 105° |
| 2026-05-08 20:15 | 37.01943 | -8.00127 | 320 ft | 137 kts | 104° |
| 2026-05-08 20:16 | 37.01776 | -7.98952 | 145 ft | 136 kts | 106° |
| 2026-05-08 20:16 | 37.01614 | -7.97799 | 21 ft | 126 kts | 101° |
| 2026-05-08 20:16 | 37.01497 | -7.96976 | 22 ft | 73 kts | 98° |
| 2026-05-08 20:16 | 37.01456 | -7.96631 | 22 ft | 17 kts | 88° |
| 2026-05-08 20:17 | 37.01540 | -7.96564 | 21 ft | 20 kts | 10° |
| 2026-05-08 20:17 | 37.01588 | -7.96555 | 21 ft | 0 kts | 1° |
| 2026-05-08 20:18 | 37.01616 | -7.96549 | 20 ft | 9 kts | 11° |
| 2026-05-08 20:18 | 37.01715 | -7.96526 | 20 ft | 19 kts | 10° |
| 2026-05-08 20:18 | 37.01793 | -7.96571 | 20 ft | 15 kts | 287° |
| 2026-05-08 20:18 | 37.01817 | -7.96628 | 20 ft | 7 kts | 346° |
| 2026-05-08 20:19 | 37.01875 | -7.96619 | 20 ft | 10 kts | 10° |
| 2026-05-08 20:19 | 37.01880 | -7.96618 | 20 ft | 3 kts | 10° |
| 2026-05-08 20:19 | 37.01882 | -7.96618 | 20 ft | 0 kts | 10° |